createdAt,value
2017-09-04T00:00:05.351Z,68.59
2017-09-04T00:01:17.886Z,68.49
2017-09-04T00:02:30.501Z,68.68
2017-09-04T00:03:42.480Z,68.87
2017-09-04T00:04:54.684Z,68.49
2017-09-04T00:06:06.913Z,68.3
2017-09-04T00:07:18.842Z,68.77
2017-09-04T00:08:31.471Z,68.68
2017-09-04T00:09:43.803Z,68.21
2017-09-04T00:10:56.362Z,68.59
2017-09-04T00:12:08.567Z,68.4
2017-09-04T00:13:20.808Z,68.21
2017-09-04T00:14:33.093Z,68.11
2017-09-04T00:15:45.684Z,68.11
2017-09-04T00:16:58.224Z,68.21
2017-09-04T00:18:10.521Z,68.4
2017-09-04T00:19:23.106Z,68.21
2017-09-04T00:20:35.096Z,68.59
2017-09-04T00:21:47.618Z,68.21
2017-09-04T00:23:00.193Z,68.21
2017-09-04T00:24:12.713Z,68.11
2017-09-04T00:25:25.278Z,67.82
2017-09-04T00:26:37.855Z,68.49
2017-09-04T00:27:50.458Z,68.11
2017-09-04T00:29:03.065Z,68.21
2017-09-04T00:30:14.707Z,68.11
2017-09-04T00:31:27.032Z,68.11
2017-09-04T00:32:38.990Z,68.21
2017-09-04T00:33:51.194Z,68.21
2017-09-04T00:35:03.791Z,68.3
2017-09-04T00:36:16.427Z,68.49
2017-09-04T00:37:29.028Z,68.21
2017-09-04T00:38:41.288Z,67.82
2017-09-04T00:39:53.857Z,68.4
2017-09-04T00:41:06.504Z,67.82
2017-09-04T00:42:19.009Z,67.82
2017-09-04T00:43:31.626Z,67.92
2017-09-04T00:44:43.900Z,67.82
2017-09-04T00:45:56.485Z,67.73
2017-09-04T00:47:09.050Z,67.92
2017-09-04T00:48:21.635Z,68.11
2017-09-04T00:49:33.880Z,68.01
2017-09-04T00:50:46.158Z,68.21
2017-09-04T00:51:58.713Z,67.92
2017-09-04T00:53:11.270Z,68.01
2017-09-04T00:54:23.929Z,68.01
2017-09-04T00:55:35.558Z,67.92
2017-09-04T00:56:48.122Z,67.92
2017-09-04T00:58:00.342Z,67.82
2017-09-04T00:59:12.643Z,67.82
2017-09-04T01:00:24.909Z,67.73
2017-09-04T01:01:36.892Z,68.01
2017-09-04T01:02:49.425Z,67.82
2017-09-04T01:04:01.329Z,68.3
2017-09-04T01:05:13.591Z,68.3
2017-09-04T01:06:25.521Z,68.3
2017-09-04T01:07:37.782Z,68.3
2017-09-04T01:08:50.067Z,68.11
2017-09-04T01:10:02.649Z,68.4
2017-09-04T01:11:14.560Z,68.4
2017-09-04T01:12:27.145Z,68.3
2017-09-04T01:13:39.671Z,68.4
2017-09-04T01:14:51.973Z,68.59
2017-09-04T01:16:04.595Z,68.59
2017-09-04T01:17:16.904Z,68.49
2017-09-04T01:18:29.175Z,68.4
2017-09-04T01:19:41.428Z,68.68
2017-09-04T01:20:54.021Z,68.96
2017-09-04T01:22:06.298Z,68.77
2017-09-04T01:23:18.617Z,68.87
2017-09-04T01:24:31.222Z,68.77
2017-09-04T01:25:43.816Z,68.77
2017-09-04T01:26:56.394Z,68.77
2017-09-04T01:28:08.673Z,68.68
2017-09-04T01:29:20.973Z,68.59
2017-09-04T01:30:33.299Z,68.68
2017-09-04T01:31:45.885Z,68.87
2017-09-04T01:32:58.459Z,68.68
2017-09-04T01:34:11.082Z,68.68
2017-09-04T01:35:23.382Z,68.77
2017-09-04T01:36:35.609Z,68.68
2017-09-04T01:37:47.880Z,68.49
2017-09-04T01:39:00.112Z,68.3
2017-09-04T01:40:12.721Z,68.4
2017-09-04T01:41:25.323Z,68.3
2017-09-04T01:42:37.873Z,68.21
2017-09-04T01:43:50.509Z,68.46
2017-09-04T01:45:03.154Z,67.73
2017-09-04T01:46:15.423Z,67.88
2017-09-04T01:47:27.947Z,67.79
2017-09-04T01:48:40.517Z,67.79
2017-09-04T01:49:52.813Z,67.79
2017-09-04T01:51:05.435Z,67.73
2017-09-04T01:52:18.006Z,67.79
2017-09-04T01:53:30.615Z,68.01
2017-09-04T01:54:42.894Z,67.79
2017-09-04T01:55:55.478Z,67.98
2017-09-04T01:57:07.760Z,67.88
2017-09-04T01:58:20.411Z,68.07
2017-09-04T01:59:32.693Z,67.79
2017-09-04T02:00:45.001Z,68.07
2017-09-04T02:01:57.680Z,68.17
2017-09-04T02:03:10.556Z,67.98
2017-09-04T02:04:23.127Z,67.79
2017-09-04T02:05:34.756Z,67.82
2017-09-04T02:06:47.282Z,67.6
2017-09-04T02:07:59.873Z,67.6
2017-09-04T02:09:12.109Z,67.69
2017-09-04T02:10:24.087Z,67.69
2017-09-04T02:11:36.119Z,67.88
2017-09-04T02:12:48.116Z,67.5
2017-09-04T02:14:00.732Z,67.6
2017-09-04T02:15:13.020Z,67.6
2017-09-04T02:16:25.595Z,67.69
2017-09-04T02:17:37.528Z,67.6
2017-09-04T02:18:50.059Z,67.5
2017-09-04T02:20:02.664Z,67.88
2017-09-04T02:21:15.231Z,68.17
2017-09-04T02:22:27.828Z,67.98
2017-09-04T02:23:40.401Z,68.27
2017-09-04T02:24:52.663Z,68.17
2017-09-04T02:26:04.986Z,68.17
2017-09-04T02:27:17.620Z,68.36
2017-09-04T02:28:30.230Z,68.27
2017-09-04T02:29:42.761Z,68.36
2017-09-04T02:30:55.286Z,68.27
2017-09-04T02:32:07.626Z,68.36
2017-09-04T02:33:19.853Z,68.36
2017-09-04T02:34:32.425Z,68.84
2017-09-04T02:35:45.276Z,68.65
2017-09-04T02:36:57.274Z,68.84
2017-09-04T02:38:09.892Z,68.27
2017-09-04T02:39:22.534Z,68.93
2017-09-04T02:40:34.807Z,68.55
2017-09-04T02:41:47.403Z,68.46
2017-09-04T02:42:59.671Z,68.36
2017-09-04T02:44:12.243Z,68.36
2017-09-04T02:45:24.843Z,68.46
2017-09-04T02:46:36.868Z,68.46
2017-09-04T02:47:49.110Z,68.65
2017-09-04T02:49:01.352Z,68.65
2017-09-04T02:50:13.913Z,68.93
2017-09-04T02:51:26.507Z,68.74
2017-09-04T02:52:39.079Z,68.46
2017-09-04T02:53:51.367Z,68.93
2017-09-04T02:55:03.945Z,68.93
2017-09-04T02:56:16.526Z,68.84
2017-09-04T02:57:29.120Z,68.36
2017-09-04T02:58:41.706Z,68.36
2017-09-04T02:59:54.241Z,68.65
2017-09-04T03:01:06.577Z,68.46
2017-09-04T03:02:19.118Z,68.17
2017-09-04T03:03:31.745Z,68.27
2017-09-04T03:04:44.019Z,68.36
2017-09-04T03:05:56.623Z,68.27
2017-09-04T03:07:09.201Z,68.27
2017-09-04T03:08:21.116Z,68.27
2017-09-04T03:09:33.377Z,67.98
2017-09-04T03:10:45.688Z,68.17
2017-09-04T03:11:58.240Z,68.07
2017-09-04T03:13:10.828Z,67.88
2017-09-04T03:14:23.681Z,67.98
2017-09-04T03:15:36.277Z,67.98
2017-09-04T03:16:48.224Z,68.07
2017-09-04T03:18:00.772Z,68.07
2017-09-04T03:19:13.692Z,68.07
2017-09-04T03:20:25.046Z,68.07
2017-09-04T03:21:37.674Z,68.17
2017-09-04T03:22:49.901Z,68.07
2017-09-04T03:24:02.180Z,67.5
2017-09-04T03:25:14.186Z,67.88
2017-09-04T03:26:26.756Z,67.69
2017-09-04T03:27:39.002Z,67.79
2017-09-04T03:28:51.229Z,67.88
2017-09-04T03:30:03.824Z,67.79
2017-09-04T03:31:16.113Z,67.13
2017-09-04T03:32:28.703Z,67.41
2017-09-04T03:33:40.716Z,67.32
2017-09-04T03:34:52.958Z,67.6
2017-09-04T03:36:05.253Z,67.6
2017-09-04T03:37:17.826Z,67.13
2017-09-04T03:38:30.373Z,67.22
2017-09-04T03:39:42.994Z,66.94
2017-09-04T03:40:55.886Z,67.13
2017-09-04T03:42:08.188Z,66.84
2017-09-04T03:43:20.464Z,66.84
2017-09-04T03:44:32.747Z,67.13
2017-09-04T03:45:45.047Z,67.22
2017-09-04T03:46:56.715Z,66.65
2017-09-04T03:48:08.991Z,66.94
2017-09-04T03:49:21.586Z,67.09
2017-09-04T03:50:33.899Z,66.74
2017-09-04T03:51:46.139Z,66.94
2017-09-04T03:52:58.710Z,67.03
2017-09-04T03:54:11.274Z,67.13
2017-09-04T03:55:23.540Z,66.94
2017-09-04T03:56:35.478Z,67.13
2017-09-04T03:57:47.757Z,66.65
2017-09-04T03:59:00.331Z,66.9
2017-09-04T04:00:12.902Z,66.65
2017-09-04T04:01:25.572Z,66.65
2017-09-04T04:02:37.557Z,66.8
2017-09-04T04:03:49.753Z,66.71
2017-09-04T04:05:01.388Z,66.9
2017-09-04T04:06:13.995Z,66.74
2017-09-04T04:07:25.924Z,66.55
2017-09-04T04:08:37.916Z,66.94
2017-09-04T04:09:50.461Z,66.61
2017-09-04T04:11:03.059Z,66.42
2017-09-04T04:12:15.364Z,66.61
2017-09-04T04:13:27.943Z,66.71
2017-09-04T04:14:40.539Z,66.61
2017-09-04T04:15:53.102Z,67.19
2017-09-04T04:17:05.381Z,66.8
2017-09-04T04:18:17.593Z,67
2017-09-04T04:19:30.125Z,66.9
2017-09-04T04:20:42.703Z,67
2017-09-04T04:21:55.045Z,66.9
2017-09-04T04:23:07.684Z,66.8
2017-09-04T04:24:20.271Z,66.61
2017-09-04T04:25:32.901Z,66.8
2017-09-04T04:26:45.169Z,66.8
2017-09-04T04:27:57.816Z,66.71
2017-09-04T04:29:09.774Z,67
2017-09-04T04:30:22.082Z,67
2017-09-04T04:31:34.689Z,66.9
2017-09-04T04:32:47.327Z,67
2017-09-04T04:33:59.605Z,66.8
2017-09-04T04:35:11.815Z,67
2017-09-04T04:36:24.335Z,66.8
2017-09-04T04:37:36.923Z,67
2017-09-04T04:38:49.176Z,66.9
2017-09-04T04:40:01.155Z,66.8
2017-09-04T04:41:13.390Z,66.52
2017-09-04T04:42:25.613Z,66.71
2017-09-04T04:43:37.860Z,66.61
2017-09-04T04:44:50.423Z,66.71
2017-09-04T04:46:03.004Z,66.52
2017-09-04T04:47:15.639Z,66.61
2017-09-04T04:48:28.272Z,66.71
2017-09-04T04:49:40.796Z,66.9
2017-09-04T04:50:53.384Z,66.55
2017-09-04T04:52:05.297Z,66.55
2017-09-04T04:53:17.834Z,66.42
2017-09-04T04:54:30.418Z,66.24
2017-09-04T04:55:42.667Z,66.61
2017-09-04T04:56:54.285Z,66.71
2017-09-04T04:58:06.867Z,66.46
2017-09-04T04:59:19.478Z,66.61
2017-09-04T05:00:32.081Z,66.52
2017-09-04T05:01:44.120Z,66.61
2017-09-04T05:02:56.678Z,66.42
2017-09-04T05:04:08.304Z,65.99
2017-09-04T05:05:20.799Z,65.8
2017-09-04T05:06:33.065Z,65.7
2017-09-04T05:07:45.711Z,65.99
2017-09-04T05:08:58.372Z,66.08
2017-09-04T05:10:10.618Z,65.7
2017-09-04T05:11:22.535Z,65.7
2017-09-04T05:12:35.151Z,65.51
2017-09-04T05:13:47.743Z,65.99
2017-09-04T05:15:00.274Z,65.7
2017-09-04T05:16:12.562Z,65.6
2017-09-04T05:17:24.765Z,65.6
2017-09-04T05:18:37.069Z,65.6
2017-09-04T05:19:49.304Z,65.7
2017-09-04T05:21:01.841Z,65.7
2017-09-04T05:22:13.796Z,65.51
2017-09-04T05:23:26.359Z,65.51
2017-09-04T05:24:38.637Z,65.51
2017-09-04T05:25:51.231Z,65.51
2017-09-04T05:27:03.520Z,65.6
2017-09-04T05:28:15.823Z,65.51
2017-09-04T05:29:28.036Z,65.51
2017-09-04T05:30:40.669Z,65.51
2017-09-04T05:31:53.306Z,65.51
2017-09-04T05:33:05.581Z,65.51
2017-09-04T05:34:17.851Z,65.51
2017-09-04T05:35:30.156Z,65.51
2017-09-04T05:36:42.675Z,65.6
2017-09-04T05:37:55.275Z,65.6
2017-09-04T05:39:07.193Z,65.7
2017-09-04T05:40:19.516Z,65.03
2017-09-04T05:41:32.104Z,65.03
2017-09-04T05:42:44.128Z,65.22
2017-09-04T05:43:56.390Z,65.32
2017-09-04T05:45:08.999Z,65.25
2017-09-04T05:46:21.297Z,65.22
2017-09-04T05:47:33.921Z,64.97
2017-09-04T05:48:46.175Z,65.16
2017-09-04T05:49:58.402Z,64.97
2017-09-04T05:51:10.047Z,64.87
2017-09-04T05:52:22.318Z,65.06
2017-09-04T05:53:34.557Z,64.97
2017-09-04T05:54:47.195Z,65.45
2017-09-04T05:55:59.466Z,65.16
2017-09-04T05:57:11.767Z,65.16
2017-09-04T05:58:23.107Z,64.5
2017-09-04T05:59:35.660Z,64.59
2017-09-04T06:00:47.957Z,64.5
2017-09-04T06:02:00.513Z,64.69
2017-09-04T06:03:12.833Z,64.4
2017-09-04T06:04:25.471Z,64.59
2017-09-04T06:05:37.744Z,64.5
2017-09-04T06:06:50.323Z,64.05
2017-09-04T06:08:02.279Z,64.43
2017-09-04T06:09:14.650Z,64.34
2017-09-04T06:10:27.195Z,63.96
2017-09-04T06:11:39.450Z,63.57
2017-09-04T06:12:51.414Z,63.48
2017-09-04T06:14:04.051Z,63.76
2017-09-04T06:15:16.015Z,63.67
2017-09-04T06:16:28.035Z,63.57
2017-09-04T06:17:40.571Z,63.76
2017-09-04T06:18:52.819Z,63.23
2017-09-04T06:20:05.136Z,63.2
2017-09-04T06:21:17.110Z,63.13
2017-09-04T06:22:29.727Z,62.37
2017-09-04T06:23:42.330Z,62.27
2017-09-04T06:24:54.822Z,62.08
2017-09-04T06:26:07.089Z,61.13
2017-09-04T06:27:19.664Z,61.04
2017-09-04T06:28:31.941Z,60.85
2017-09-04T06:29:44.595Z,60.66
2017-09-04T06:30:57.099Z,60.08
2017-09-04T06:32:09.426Z,59.99
2017-09-04T06:33:21.724Z,59.51
2017-09-04T06:34:33.977Z,59.23
2017-09-04T06:35:46.254Z,58.84
2017-09-04T06:36:58.525Z,58.69
2017-09-04T06:38:10.822Z,58.4
2017-09-04T06:39:22.735Z,57.82
2017-09-04T06:40:35.019Z,57.16
2017-09-04T06:41:46.969Z,56.59
2017-09-04T06:42:58.965Z,56.68
2017-09-04T06:44:11.501Z,56.4
2017-09-04T06:45:24.100Z,56.4
2017-09-04T06:46:36.643Z,56.11
2017-09-04T06:47:48.660Z,56.21
2017-09-04T06:49:00.906Z,56.02
2017-09-04T06:50:13.528Z,56.14
2017-09-04T06:51:25.823Z,55.85
2017-09-04T06:52:38.419Z,55.95
2017-09-04T06:53:51.089Z,55.76
2017-09-04T06:55:03.403Z,55.57
2017-09-04T06:56:15.982Z,55.21
2017-09-04T06:57:28.577Z,54.93
2017-09-04T06:58:41.223Z,54.74
2017-09-04T06:59:53.117Z,53.88
2017-09-04T07:01:05.681Z,53.53
2017-09-04T07:02:18.270Z,52.19
2017-09-04T07:03:30.853Z,52.09
2017-09-04T07:04:43.392Z,52.09
2017-09-04T07:05:55.973Z,52.57
2017-09-04T07:07:08.484Z,52.31
2017-09-04T07:08:20.755Z,52.79
2017-09-04T07:09:33.300Z,52.5
2017-09-04T07:10:45.854Z,53.65
2017-09-04T07:11:58.436Z,53.93
2017-09-04T07:13:10.752Z,54.7
2017-09-04T07:14:23.058Z,55.24
2017-09-04T07:15:35.669Z,56.32
2017-09-04T07:16:48.232Z,56.77
2017-09-04T07:17:59.819Z,58.11
2017-09-04T07:19:12.477Z,59.34
2017-09-04T07:20:24.986Z,60.97
2017-09-04T07:21:37.249Z,62.49
2017-09-04T07:22:49.803Z,63.26
2017-09-04T07:24:02.111Z,64.02
2017-09-04T07:25:14.076Z,64.88
2017-09-04T07:26:26.024Z,65.48
2017-09-04T07:27:38.270Z,65.77
2017-09-04T07:28:50.880Z,65.2
2017-09-04T07:30:03.544Z,65.1
2017-09-04T07:31:15.890Z,65.3
2017-09-04T07:32:27.885Z,65.1
2017-09-04T07:33:40.443Z,65.01
2017-09-04T07:34:52.709Z,65.96
2017-09-04T07:36:04.666Z,65.1
2017-09-04T07:37:16.669Z,64.37
2017-09-04T07:38:28.606Z,63.8
2017-09-04T07:39:40.926Z,63.03
2017-09-04T07:40:52.920Z,62.4
2017-09-04T07:42:05.572Z,61.63
2017-09-04T07:43:18.102Z,60.99
2017-09-04T07:44:30.704Z,60.9
2017-09-04T07:45:43.063Z,61.57
2017-09-04T07:46:55.639Z,62.08
2017-09-04T07:48:08.294Z,63.13
2017-09-04T07:49:20.539Z,65.04
2017-09-04T07:50:32.810Z,65.74
2017-09-04T07:51:45.105Z,66.61
2017-09-04T07:52:57.736Z,68.42
2017-09-04T07:54:10.332Z,73.21
2017-09-04T07:55:22.965Z,74.97
2017-09-04T07:56:35.223Z,80.48
2017-09-04T07:57:47.810Z,80.58
2017-09-04T07:59:00.103Z,80.19
2017-09-04T08:00:12.675Z,79.14
2017-09-04T08:01:25.271Z,79.14
2017-09-04T08:02:37.808Z,79.14
2017-09-04T08:03:50.112Z,82.3
2017-09-04T08:05:02.681Z,83.69
2017-09-04T08:06:15.011Z,85.51
2017-09-04T08:07:26.976Z,82.35
2017-09-04T08:08:39.298Z,83.79
2017-09-04T08:09:51.578Z,81.59
2017-09-04T08:11:04.162Z,82.35
2017-09-04T08:12:15.792Z,83.5
2017-09-04T08:13:28.025Z,82.35
2017-09-04T08:14:40.364Z,80.02
2017-09-04T08:15:52.921Z,79.2
2017-09-04T08:17:05.496Z,78.39
2017-09-04T08:18:17.766Z,79.96
2017-09-04T08:19:29.748Z,82.51
2017-09-04T08:20:42.051Z,84.61
2017-09-04T08:21:54.013Z,82.22
2017-09-04T08:23:06.548Z,80.5
2017-09-04T08:24:19.149Z,80.69
2017-09-04T08:25:30.782Z,80.88
2017-09-04T08:26:42.761Z,80.4
2017-09-04T08:27:55.056Z,78.97
2017-09-04T08:29:07.379Z,78.39
2017-09-04T08:30:20.008Z,78.3
2017-09-04T08:31:32.314Z,78.97
2017-09-04T08:32:43.974Z,78.97
2017-09-04T08:33:56.470Z,76.96
2017-09-04T08:35:08.726Z,76.48
2017-09-04T08:36:21.339Z,78.01
2017-09-04T08:37:33.254Z,78.78
2017-09-04T08:38:45.196Z,77.44
2017-09-04T08:39:57.784Z,81.55
2017-09-04T08:41:10.376Z,81.84
2017-09-04T08:42:22.654Z,83.56
2017-09-04T08:43:34.324Z,81.07
2017-09-04T08:44:46.545Z,82.45
2017-09-04T08:45:58.888Z,85.51
2017-09-04T08:47:11.478Z,86.85
2017-09-04T08:48:23.406Z,89.15
2017-09-04T08:49:35.982Z,88.95
2017-09-04T08:50:48.216Z,85.51
2017-09-04T08:52:00.818Z,83.6
2017-09-04T08:53:12.470Z,85.32
2017-09-04T08:54:24.181Z,85.03
2017-09-04T08:55:36.458Z,82.83
2017-09-04T08:56:48.426Z,82.26
2017-09-04T08:58:00.742Z,85.32
2017-09-04T08:59:12.748Z,82.54
2017-09-04T09:00:24.757Z,83.31
2017-09-04T09:01:37.006Z,87.81
2017-09-04T09:02:49.324Z,85.27
2017-09-04T09:04:01.894Z,85.51
2017-09-04T09:05:14.483Z,84.02
2017-09-04T09:06:27.072Z,83.73
2017-09-04T09:07:39.363Z,93.98
2017-09-04T09:08:50.763Z,89.19
2017-09-04T09:10:03.339Z,86.04
2017-09-04T09:11:15.354Z,97.04
2017-09-04T09:12:27.937Z,89.09
2017-09-04T09:13:40.570Z,89.58
2017-09-04T09:14:52.866Z,89.67
2017-09-04T09:16:05.452Z,92.3
2017-09-04T09:17:17.769Z,91.34
2017-09-04T09:18:30.084Z,96.13
2017-09-04T09:19:41.718Z,93.64
2017-09-04T09:20:54.361Z,93.16
2017-09-04T09:22:06.986Z,98.91
2017-09-04T09:23:18.986Z,95.94
2017-09-04T09:24:31.644Z,96.7
2017-09-04T09:25:43.927Z,96.42
2017-09-04T09:26:55.913Z,96.22
2017-09-04T09:28:08.180Z,97.09
2017-09-04T09:29:20.727Z,93.74
2017-09-04T09:30:32.399Z,92.21
2017-09-04T09:31:44.131Z,93.93
2017-09-04T09:32:56.100Z,94.31
2017-09-04T09:34:08.383Z,92.58
2017-09-04T09:35:20.289Z,91.49
2017-09-04T09:36:32.536Z,92.35
2017-09-04T09:37:44.172Z,93.59
2017-09-04T09:38:56.834Z,95.41
2017-09-04T09:40:08.767Z,95.6
2017-09-04T09:41:21.085Z,96.08
2017-09-04T09:42:33.423Z,95.89
2017-09-04T09:43:46.034Z,96.27
2017-09-04T09:44:58.279Z,96.47
2017-09-04T09:46:10.870Z,97.52
2017-09-04T09:47:23.106Z,95.6
2017-09-04T09:48:35.700Z,98.86
2017-09-04T09:49:48.281Z,95.6
2017-09-04T09:51:00.533Z,95.7
2017-09-04T09:52:13.121Z,94.69
2017-09-04T09:53:25.717Z,94.74
2017-09-04T09:54:38.302Z,95.79
2017-09-04T09:55:50.608Z,96.89
2017-09-04T09:57:03.145Z,96.42
2017-09-04T09:58:15.459Z,98.14
2017-09-04T09:59:27.769Z,96.13
2017-09-04T10:00:40.375Z,98.14
2017-09-04T10:01:52.992Z,98.14
2017-09-04T10:03:05.580Z,97.85
2017-09-04T10:04:17.827Z,97.56
2017-09-04T10:05:29.814Z,98.43
2017-09-04T10:06:41.434Z,97.09
2017-09-04T10:07:54.099Z,96.7
2017-09-04T10:09:06.669Z,97.23
2017-09-04T10:10:18.972Z,98.86
2017-09-04T10:11:31.550Z,98.38
2017-09-04T10:12:44.147Z,96.27
2017-09-04T10:13:56.684Z,96.85
2017-09-04T10:15:09.262Z,97.9
2017-09-04T10:16:21.544Z,97.42
2017-09-04T10:17:33.830Z,98.1
2017-09-04T10:18:46.077Z,96.94
2017-09-04T10:19:58.599Z,98.48
2017-09-04T10:21:10.868Z,96.61
2017-09-04T10:22:23.135Z,97.28
2017-09-04T10:23:35.135Z,96.51
2017-09-04T10:24:46.753Z,97.09
2017-09-04T10:25:59.326Z,96.51
2017-09-04T10:27:11.911Z,97.47
2017-09-04T10:28:24.158Z,96.61
2017-09-04T10:29:36.353Z,97.33
2017-09-04T10:30:48.674Z,95.98
2017-09-04T10:32:01.313Z,95.21
2017-09-04T10:33:13.572Z,94.54
2017-09-04T10:34:24.892Z,95.41
2017-09-04T10:35:37.138Z,95.31
2017-09-04T10:36:48.462Z,95.98
2017-09-04T10:38:01.106Z,93.1
2017-09-04T10:39:12.706Z,93.39
2017-09-04T10:40:24.994Z,92.96
2017-09-04T10:41:37.240Z,95.26
2017-09-04T10:42:49.829Z,92.19
2017-09-04T10:44:02.184Z,93.29
2017-09-04T10:45:14.521Z,93.01
2017-09-04T10:46:27.125Z,92.62
2017-09-04T10:47:39.369Z,93.05
2017-09-04T10:48:51.608Z,92.57
2017-09-04T10:50:04.154Z,90.65
2017-09-04T10:51:16.790Z,91.22
2017-09-04T10:52:29.026Z,89.54
2017-09-04T10:53:41.015Z,90.79
2017-09-04T10:54:53.294Z,89.87
2017-09-04T10:56:05.607Z,89.29
2017-09-04T10:57:17.321Z,91.13
2017-09-04T10:58:29.318Z,91.31
2017-09-04T10:59:41.984Z,89.87
2017-09-04T11:00:54.356Z,89.53
2017-09-04T11:02:06.941Z,87.8
2017-09-04T11:03:19.544Z,87.22
2017-09-04T11:04:32.146Z,88.95
2017-09-04T11:05:44.454Z,85.3
2017-09-04T11:06:56.794Z,87.32
2017-09-04T11:08:09.374Z,85.87
2017-09-04T11:09:21.944Z,87.65
2017-09-04T11:10:34.598Z,88.23
2017-09-04T11:11:47.233Z,86.01
2017-09-04T11:12:59.228Z,85.43
2017-09-04T11:14:11.846Z,85.72
2017-09-04T11:15:24.137Z,86.59
2017-09-04T11:16:36.414Z,88.04
2017-09-04T11:17:49.047Z,87.46
2017-09-04T11:19:01.367Z,88.67
2017-09-04T11:20:13.639Z,86.83
2017-09-04T11:21:26.203Z,86.02
2017-09-04T11:22:39.051Z,87.46
2017-09-04T11:23:51.678Z,87.76
2017-09-04T11:25:03.956Z,88.57
2017-09-04T11:26:16.560Z,91.17
2017-09-04T11:27:29.168Z,92.61
2017-09-04T11:28:41.745Z,92.81
2017-09-04T11:29:53.716Z,93.15
2017-09-04T11:31:05.380Z,91.08
2017-09-04T11:32:17.352Z,91.71
2017-09-04T11:33:29.292Z,91.94
2017-09-04T11:34:41.552Z,90.98
2017-09-04T11:35:53.862Z,91.36
2017-09-04T11:37:06.109Z,91.27
2017-09-04T11:38:18.865Z,88.81
2017-09-04T11:39:31.444Z,88.57
2017-09-04T11:40:43.828Z,87.99
2017-09-04T11:41:56.079Z,87.22
2017-09-04T11:43:08.306Z,88.28
2017-09-04T11:44:20.866Z,86.65
2017-09-04T11:45:33.110Z,90.59
2017-09-04T11:46:45.435Z,88.76
2017-09-04T11:47:57.438Z,89.05
2017-09-04T11:49:10.006Z,87.51
2017-09-04T11:50:22.646Z,88.09
2017-09-04T11:51:34.975Z,89.15
2017-09-04T11:52:47.240Z,89
2017-09-04T11:53:59.216Z,85.67
2017-09-04T11:55:11.168Z,87.07
2017-09-04T11:56:23.814Z,84.03
2017-09-04T11:57:35.500Z,85.09
2017-09-04T11:58:47.462Z,86.15
2017-09-04T11:59:59.727Z,87.4
2017-09-04T12:01:11.983Z,85.38
2017-09-04T12:02:24.217Z,84.99
2017-09-04T12:03:36.523Z,86.82
2017-09-04T12:04:48.819Z,86.92
2017-09-04T12:06:01.403Z,86.54
2017-09-04T12:07:13.337Z,86.59
2017-09-04T12:08:25.571Z,84.7
2017-09-04T12:09:37.849Z,87.65
2017-09-04T12:10:50.120Z,87.07
2017-09-04T12:12:02.439Z,84.95
2017-09-04T12:13:15.077Z,87.46
2017-09-04T12:14:27.330Z,86.69
2017-09-04T12:15:39.304Z,85.14
2017-09-04T12:16:51.815Z,86.07
2017-09-04T12:18:04.429Z,85.87
2017-09-04T12:19:16.742Z,86.35
2017-09-04T12:20:29.027Z,86.65
2017-09-04T12:21:41.047Z,84.91
2017-09-04T12:22:53.666Z,87.51
2017-09-04T12:24:06.320Z,88.43
2017-09-04T12:25:18.683Z,86.99
2017-09-04T12:26:30.612Z,87.37
2017-09-04T12:27:42.937Z,86.69
2017-09-04T12:28:55.197Z,88.81
2017-09-04T12:30:08.678Z,88.71
2017-09-04T12:31:20.595Z,88.24
2017-09-04T12:32:32.252Z,86.6
2017-09-04T12:33:44.580Z,84.39
2017-09-04T12:34:56.887Z,85.54
2017-09-04T12:36:08.833Z,87.56
2017-09-04T12:37:21.346Z,86.69
2017-09-04T12:38:33.604Z,87.66
2017-09-04T12:39:45.857Z,88.87
2017-09-04T12:40:58.171Z,86.75
2017-09-04T12:42:10.794Z,88.29
2017-09-04T12:43:23.069Z,85.88
2017-09-04T12:44:35.321Z,87.62
2017-09-04T12:45:47.604Z,85.88
2017-09-04T12:46:59.875Z,86.94
2017-09-04T12:48:12.477Z,89.15
2017-09-04T12:49:25.059Z,87.62
2017-09-04T12:50:37.618Z,84.83
2017-09-04T12:51:50.207Z,85.78
2017-09-04T12:53:02.516Z,85.02
2017-09-04T12:54:15.140Z,85.98
2017-09-04T12:55:27.361Z,88.1
2017-09-04T12:56:39.896Z,88.67
2017-09-04T12:57:52.148Z,87.57
2017-09-04T12:59:04.469Z,86.52
2017-09-04T13:00:17.052Z,87.86
2017-09-04T13:01:29.685Z,86.04
2017-09-04T13:02:41.368Z,86.52
2017-09-04T13:03:53.661Z,86.8
2017-09-04T13:05:05.940Z,87.09
2017-09-04T13:06:18.472Z,84.98
2017-09-04T13:07:31.082Z,87.96
2017-09-04T13:08:43.086Z,87.38
2017-09-04T13:09:55.634Z,86.52
2017-09-04T13:11:08.244Z,86.32
2017-09-04T13:12:20.779Z,86.13
2017-09-04T13:13:33.347Z,85.94
2017-09-04T13:14:45.315Z,86.32
2017-09-04T13:15:56.959Z,86.61
2017-09-04T13:17:09.265Z,85.46
2017-09-04T13:18:21.875Z,86.9
2017-09-04T13:19:34.413Z,88.68
2017-09-04T13:20:46.667Z,85.89
2017-09-04T13:21:59.235Z,86.28
2017-09-04T13:23:11.236Z,86.66
2017-09-04T13:24:23.826Z,86.38
2017-09-04T13:25:35.766Z,85.61
2017-09-04T13:26:48.042Z,86.47
2017-09-04T13:28:00.358Z,86.47
2017-09-04T13:29:12.261Z,85.61
2017-09-04T13:30:24.281Z,85.51
2017-09-04T13:31:36.555Z,85.89
2017-09-04T13:32:49.126Z,86.85
2017-09-04T13:34:01.735Z,87.34
2017-09-04T13:35:13.696Z,87.43
2017-09-04T13:36:26.291Z,84.84
2017-09-04T13:37:38.587Z,86.66
2017-09-04T13:38:50.287Z,87.62
2017-09-04T13:40:02.926Z,86.18
2017-09-04T13:41:15.258Z,86.95
2017-09-04T13:42:27.811Z,88.1
2017-09-04T13:43:40.461Z,87.24
2017-09-04T13:44:52.756Z,85.71
2017-09-04T13:46:05.342Z,85.41
2017-09-04T13:47:17.899Z,85.71
2017-09-04T13:48:30.548Z,84.26
2017-09-04T13:49:42.529Z,84.64
2017-09-04T13:50:55.056Z,84.17
2017-09-04T13:52:07.671Z,85.13
2017-09-04T13:53:19.897Z,85.89
2017-09-04T13:54:32.175Z,86.57
2017-09-04T13:55:44.740Z,85.99
2017-09-04T13:56:57.041Z,86.28
2017-09-04T13:58:09.648Z,84.17
2017-09-04T13:59:21.902Z,84.26
2017-09-04T14:00:34.145Z,83.34
2017-09-04T14:01:46.756Z,85.07
2017-09-04T14:02:59.075Z,84.69
2017-09-04T14:04:11.395Z,84.11
2017-09-04T14:05:23.997Z,84.69
2017-09-04T14:06:36.580Z,84.11
2017-09-04T14:07:49.182Z,83.44
2017-09-04T14:09:01.526Z,83.83
2017-09-04T14:10:13.849Z,83.73
2017-09-04T14:11:26.469Z,85.17
2017-09-04T14:12:39.115Z,84.78
2017-09-04T14:13:51.378Z,83.83
2017-09-04T14:15:03.963Z,84.11
2017-09-04T14:16:16.601Z,84.21
2017-09-04T14:17:29.234Z,84.78
2017-09-04T14:18:41.507Z,84.11
2017-09-04T14:19:53.181Z,84.98
2017-09-04T14:21:06.084Z,84.88
2017-09-04T14:22:18.372Z,85.75
2017-09-04T14:23:30.973Z,84.11
2017-09-04T14:24:42.961Z,83.83
2017-09-04T14:25:55.509Z,83.67
2017-09-04T14:27:08.076Z,81.99
2017-09-04T14:28:20.624Z,82.57
2017-09-04T14:29:33.252Z,83.83
2017-09-04T14:30:45.905Z,83.06
2017-09-04T14:31:57.258Z,82.14
2017-09-04T14:33:09.921Z,81.61
2017-09-04T14:34:22.449Z,82.42
2017-09-04T14:35:35.038Z,82.61
2017-09-04T14:36:47.645Z,80.98
2017-09-04T14:37:59.929Z,81.65
2017-09-04T14:39:12.458Z,82.23
2017-09-04T14:40:25.040Z,82.42
2017-09-04T14:41:37.363Z,82.04
2017-09-04T14:42:50.220Z,82.14
2017-09-04T14:44:02.877Z,82.04
2017-09-04T14:45:15.496Z,82.52
2017-09-04T14:46:27.514Z,82.61
2017-09-04T14:47:39.479Z,81.94
2017-09-04T14:48:52.056Z,82.71
2017-09-04T14:50:04.395Z,83.09
2017-09-04T14:51:16.693Z,83.77
2017-09-04T14:52:29.313Z,83.42
2017-09-04T14:53:41.934Z,82.94
2017-09-04T14:54:54.494Z,81.3
2017-09-04T14:56:07.054Z,81.4
2017-09-04T14:57:19.318Z,81.6
2017-09-04T14:58:31.920Z,80.83
2017-09-04T14:59:44.770Z,82.17
2017-09-04T15:00:57.088Z,81.79
2017-09-04T15:02:09.452Z,80.83
2017-09-04T15:03:21.969Z,80.06
2017-09-04T15:04:34.641Z,79.86
2017-09-04T15:05:46.980Z,80.83
2017-09-04T15:06:59.535Z,80.25
2017-09-04T15:08:12.070Z,79.86
2017-09-04T15:09:24.641Z,81.21
2017-09-04T15:10:37.186Z,81.02
2017-09-04T15:11:49.441Z,81.6
2017-09-04T15:13:01.785Z,80.06
2017-09-04T15:14:14.067Z,80.25
2017-09-04T15:15:26.701Z,80.15
2017-09-04T15:16:38.965Z,80.06
2017-09-04T15:17:51.197Z,80.44
2017-09-04T15:19:03.765Z,80.35
2017-09-04T15:20:16.308Z,80.83
2017-09-04T15:21:28.941Z,79.19
2017-09-04T15:22:40.644Z,80.35
2017-09-04T15:23:53.189Z,80.83
2017-09-04T15:25:05.441Z,81.88
2017-09-04T15:26:17.988Z,82.27
2017-09-04T15:27:30.263Z,81.79
2017-09-04T15:28:42.590Z,82.08
2017-09-04T15:29:54.949Z,81.21
2017-09-04T15:31:06.913Z,80.83
2017-09-04T15:32:19.439Z,80.35
2017-09-04T15:33:32.036Z,79.28
2017-09-04T15:34:44.343Z,78.23
2017-09-04T15:35:56.976Z,77.84